createdAt,value
2023-05-07T00:01:49.199Z,2.70
2023-05-07T00:03:52.025Z,2.67
2023-05-07T00:05:54.943Z,2.40
2023-05-07T00:07:59.515Z,2.20
2023-05-07T00:10:02.619Z,2.28
2023-05-07T00:12:05.538Z,2.35
2023-05-07T00:14:09.714Z,2.10
2023-05-07T00:16:12.605Z,2.45
2023-05-07T00:18:15.517Z,2.22
2023-05-07T00:20:18.336Z,2.28
2023-05-07T00:22:22.436Z,2.20
2023-05-07T00:24:25.232Z,2.30
2023-05-07T00:26:27.955Z,2.22
2023-05-07T00:28:30.820Z,2.22
2023-05-07T00:30:34.982Z,2.30
2023-05-07T00:32:38.109Z,2.40
2023-05-07T00:34:41.222Z,2.25
2023-05-07T00:36:44.164Z,1.98
2023-05-07T00:38:46.975Z,1.80
2023-05-07T00:40:49.734Z,1.98
2023-05-07T00:42:57.790Z,2.10
2023-05-07T00:45:00.718Z,1.83
2023-05-07T00:47:06.897Z,2.15
2023-05-07T00:49:09.856Z,2.00
2023-05-07T00:51:13.600Z,2.05
2023-05-07T00:53:16.605Z,1.95
2023-05-07T00:55:20.070Z,1.92
2023-05-07T00:57:24.012Z,1.95
2023-05-07T00:59:27.119Z,1.85
2023-05-07T01:01:30.861Z,2.00
2023-05-07T01:03:35.186Z,2.10
2023-05-07T01:05:38.575Z,1.90
2023-05-07T01:07:44.339Z,2.00
2023-05-07T01:09:47.189Z,2.30
2023-05-07T01:11:51.412Z,2.20
2023-05-07T01:13:55.184Z,2.00
2023-05-07T01:15:58.108Z,2.15
2023-05-07T01:18:01.264Z,1.80
2023-05-07T01:20:08.099Z,2.00
2023-05-07T01:22:13.305Z,1.98
2023-05-07T01:24:18.179Z,2.00
2023-05-07T01:26:21.605Z,2.17
2023-05-07T01:28:24.761Z,2.28
2023-05-07T01:30:28.531Z,2.25
2023-05-07T01:32:35.874Z,2.50
2023-05-07T01:34:39.424Z,2.35
2023-05-07T01:36:44.532Z,2.22
2023-05-07T01:38:47.710Z,2.08
2023-05-07T01:40:52.303Z,1.95
2023-05-07T01:42:56.664Z,1.95
2023-05-07T01:44:59.634Z,2.00
2023-05-07T01:47:04.184Z,2.15
2023-05-07T01:49:07.138Z,1.83
2023-05-07T01:51:10.968Z,2.00
2023-05-07T01:53:13.738Z,1.65
2023-05-07T01:55:16.509Z,2.00
2023-05-07T01:57:20.616Z,2.20
2023-05-07T01:59:23.358Z,2.20
2023-05-07T02:01:26.617Z,1.92
2023-05-07T02:03:29.573Z,1.73
2023-05-07T02:05:32.567Z,1.80
2023-05-07T02:07:35.487Z,2.00
2023-05-07T02:09:38.342Z,1.80
2023-05-07T02:11:41.203Z,2.00
2023-05-07T02:13:45.420Z,2.30
2023-05-07T02:15:51.351Z,1.73
2023-05-07T02:18:02.181Z,2.10
2023-05-07T02:20:05.879Z,1.65
2023-05-07T02:22:08.959Z,2.10
2023-05-07T02:24:11.734Z,1.92
2023-05-07T02:26:14.549Z,1.92
2023-05-07T02:28:17.451Z,1.92
2023-05-07T02:30:22.294Z,1.80
2023-05-07T02:32:25.520Z,2.08
2023-05-07T02:34:28.685Z,1.95
2023-05-07T02:36:31.677Z,1.83
2023-05-07T02:38:34.577Z,1.83
2023-05-07T02:40:39.755Z,1.83
2023-05-07T02:42:42.569Z,2.20
2023-05-07T02:44:45.425Z,2.58
2023-05-07T02:46:49.544Z,2.33
2023-05-07T02:48:52.442Z,2.10
2023-05-07T02:50:55.221Z,2.13
2023-05-07T02:52:58.043Z,2.42
2023-05-07T02:55:00.964Z,2.30
2023-05-07T02:57:04.201Z,2.72
2023-05-07T02:59:07.003Z,2.17
2023-05-07T03:01:10.781Z,2.00
2023-05-07T03:03:15.049Z,2.13
2023-05-07T03:05:17.966Z,2.17
2023-05-07T03:07:21.017Z,2.10
2023-05-07T03:09:23.861Z,2.15
2023-05-07T03:11:26.840Z,2.33
2023-05-07T03:13:29.650Z,2.35
2023-05-07T03:15:32.619Z,2.22
2023-05-07T03:17:35.597Z,2.00
2023-05-07T03:19:39.878Z,2.65
2023-05-07T03:21:42.920Z,2.50
2023-05-07T03:23:45.828Z,2.25
2023-05-07T03:25:48.533Z,2.60
2023-05-07T03:27:51.412Z,2.15
2023-05-07T03:29:54.189Z,2.08
2023-05-07T03:31:57.131Z,2.35
2023-05-07T03:34:00.125Z,2.70
2023-05-07T03:36:04.520Z,1.88
2023-05-07T03:38:07.558Z,2.28
2023-05-07T03:40:13.677Z,2.17
2023-05-07T03:42:17.023Z,2.97
2023-05-07T03:44:19.832Z,2.30
2023-05-07T03:46:22.687Z,2.60
2023-05-07T03:48:26.034Z,2.40
2023-05-07T03:50:28.884Z,2.45
2023-05-07T03:52:33.244Z,2.58
2023-05-07T03:54:36.175Z,2.15
2023-05-07T03:56:39.019Z,2.17
2023-05-07T03:58:41.762Z,2.40
2023-05-07T04:04:01.401Z,2.33
2023-05-07T04:06:04.484Z,2.45
2023-05-07T04:08:08.659Z,3.30
2023-05-07T04:10:12.330Z,2.65
2023-05-07T04:12:15.316Z,2.28
2023-05-07T04:14:18.023Z,2.30
2023-05-07T04:16:20.805Z,2.58
2023-05-07T04:18:23.755Z,2.80
2023-05-07T04:20:26.491Z,3.03
2023-05-07T04:22:29.255Z,4.00
2023-05-07T04:24:34.971Z,3.58
2023-05-07T04:26:37.707Z,2.83
2023-05-07T04:28:41.235Z,2.58
2023-05-07T04:30:44.100Z,2.63
2023-05-07T04:32:47.099Z,2.72
2023-05-07T04:34:49.931Z,2.78
2023-05-07T04:36:52.679Z,2.45
2023-05-07T04:38:55.655Z,2.53
2023-05-07T04:40:59.759Z,2.85
2023-05-07T04:43:02.483Z,2.55
2023-05-07T04:45:05.855Z,2.67
2023-05-07T04:47:08.702Z,3.33
2023-05-07T04:49:13.786Z,2.80
2023-05-07T04:51:18.808Z,2.90
2023-05-07T04:53:23.496Z,2.42
2023-05-07T04:55:26.410Z,3.03
2023-05-07T04:57:30.496Z,2.72
2023-05-07T04:59:33.990Z,3.47
2023-05-07T05:01:36.873Z,3.75
2023-05-07T05:03:40.639Z,3.53
2023-05-07T05:05:43.462Z,3.50
2023-05-07T05:07:46.201Z,3.10
2023-05-07T05:09:48.917Z,3.53
2023-05-07T05:11:51.695Z,3.42
2023-05-07T05:13:55.809Z,3.63
2023-05-07T05:15:58.497Z,3.35
2023-05-07T05:18:01.231Z,3.40
2023-05-07T05:20:04.737Z,3.05
2023-05-07T05:22:07.468Z,2.80
2023-05-07T05:24:10.279Z,3.00
2023-05-07T05:26:12.967Z,2.72
2023-05-07T05:28:15.717Z,2.80
2023-05-07T05:30:21.252Z,3.05
2023-05-07T05:32:24.590Z,3.00
2023-05-07T05:34:27.368Z,3.05
2023-05-07T05:36:30.099Z,2.78
2023-05-07T05:38:32.840Z,2.70
2023-05-07T05:40:35.542Z,2.70
2023-05-07T05:42:38.234Z,2.50
2023-05-07T05:44:40.997Z,2.40
2023-05-07T05:46:45.181Z,2.50
2023-05-07T05:48:47.995Z,2.50
2023-05-07T05:50:50.669Z,2.83
2023-05-07T05:52:53.349Z,3.10
2023-05-07T05:54:56.037Z,2.60
2023-05-07T05:56:59.012Z,2.63
2023-05-07T05:59:01.881Z,3.10
2023-05-07T06:01:06.161Z,2.58
2023-05-07T06:03:14.439Z,3.10
2023-05-07T06:05:17.691Z,3.03
2023-05-07T06:07:20.513Z,2.90
2023-05-07T06:09:23.284Z,2.67
2023-05-07T06:11:26.370Z,2.40
2023-05-07T06:13:29.328Z,2.47
2023-05-07T06:15:32.158Z,2.80
2023-05-07T06:17:35.814Z,2.38
2023-05-07T06:19:39.945Z,2.40
2023-05-07T06:21:42.730Z,2.58
2023-05-07T06:23:45.506Z,2.63
2023-05-07T06:25:50.961Z,2.83
2023-05-07T06:27:53.711Z,2.65
2023-05-07T06:29:56.619Z,2.42
2023-05-07T06:32:08.535Z,2.83
2023-05-07T06:34:15.129Z,2.53
2023-05-07T06:36:19.194Z,3.00
2023-05-07T06:38:21.870Z,2.70
2023-05-07T06:40:24.572Z,2.40
2023-05-07T06:42:27.659Z,2.65
2023-05-07T06:44:30.417Z,2.75
2023-05-07T06:46:33.265Z,2.88
2023-05-07T06:48:36.106Z,2.60
2023-05-07T06:50:38.850Z,3.03
2023-05-07T06:52:42.923Z,3.40
2023-05-07T06:54:45.651Z,3.25
2023-05-07T06:56:48.310Z,2.78
2023-05-07T06:58:51.113Z,2.72
2023-05-07T07:00:53.807Z,3.08
2023-05-07T07:02:57.391Z,2.75
2023-05-07T07:05:00.204Z,3.20
2023-05-07T07:07:03.073Z,3.17
2023-05-07T07:09:07.240Z,2.83
2023-05-07T07:11:11.153Z,3.28
2023-05-07T07:13:13.945Z,2.80
2023-05-07T07:15:17.082Z,2.97
2023-05-07T07:17:19.902Z,3.05
2023-05-07T07:19:22.578Z,3.00
2023-05-07T07:21:25.356Z,2.97
2023-05-07T07:23:28.181Z,2.75
2023-05-07T07:25:32.290Z,2.90
2023-05-07T07:27:35.047Z,3.03
2023-05-07T07:29:38.035Z,2.90
2023-05-07T07:31:41.511Z,3.00
2023-05-07T07:33:44.336Z,2.97
2023-05-07T07:35:47.108Z,2.80
2023-05-07T07:37:51.603Z,3.25
2023-05-07T07:39:54.461Z,2.70
2023-05-07T07:41:58.599Z,3.03
2023-05-07T07:44:01.394Z,3.25
2023-05-07T07:46:04.395Z,3.00
2023-05-07T07:48:07.732Z,2.90
2023-05-07T07:50:12.713Z,3.08
2023-05-07T07:52:18.093Z,3.40
2023-05-07T07:54:20.829Z,2.88
2023-05-07T07:56:23.685Z,2.70
2023-05-07T07:58:27.824Z,2.70
2023-05-07T08:00:30.590Z,3.05
2023-05-07T08:02:33.440Z,3.13
2023-05-07T08:04:38.083Z,2.90
2023-05-07T08:06:41.004Z,2.92
2023-05-07T08:08:43.764Z,2.83
2023-05-07T08:10:46.702Z,3.00
2023-05-07T08:12:49.834Z,3.25
2023-05-07T08:14:54.014Z,3.08
2023-05-07T08:16:57.090Z,3.35
2023-05-07T08:18:59.854Z,2.80
2023-05-07T08:21:03.297Z,2.70
2023-05-07T08:23:07.113Z,2.72
2023-05-07T08:25:10.848Z,3.35
2023-05-07T08:27:13.787Z,2.60
2023-05-07T08:29:16.636Z,3.03
2023-05-07T08:31:20.919Z,3.08
2023-05-07T08:33:23.988Z,2.97
2023-05-07T08:35:28.038Z,3.03
2023-05-07T08:37:30.864Z,2.83
2023-05-07T08:39:33.714Z,3.08
2023-05-07T08:41:36.825Z,3.15
2023-05-07T08:43:42.797Z,2.97
2023-05-07T08:45:48.174Z,2.70
2023-05-07T08:47:54.909Z,2.42
2023-05-07T08:49:57.747Z,3.38
2023-05-07T08:52:01.194Z,2.72
2023-05-07T08:54:04.633Z,3.03
2023-05-07T08:56:08.808Z,3.10
2023-05-07T08:58:11.749Z,2.50
2023-05-07T09:00:15.773Z,3.00
2023-05-07T09:02:19.312Z,2.65
2023-05-07T09:04:23.751Z,2.40
2023-05-07T09:06:27.676Z,2.50
2023-05-07T09:08:30.546Z,2.55
2023-05-07T09:10:35.421Z,2.67
2023-05-07T09:12:38.961Z,2.47
2023-05-07T09:14:41.831Z,2.25
2023-05-07T09:16:44.817Z,2.08
2023-05-07T09:18:48.605Z,2.30
2023-05-07T09:20:52.956Z,2.60
2023-05-07T09:22:58.046Z,2.58
2023-05-07T09:25:01.036Z,2.78
2023-05-07T09:27:04.240Z,2.50
2023-05-07T09:29:07.104Z,2.13
2023-05-07T09:31:10.012Z,2.50
2023-05-07T09:33:12.785Z,2.92
2023-05-07T09:35:18.080Z,2.20
2023-05-07T09:37:22.331Z,2.28
2023-05-07T09:39:25.564Z,2.13
2023-05-07T09:41:28.599Z,2.58
2023-05-07T09:43:35.444Z,2.28
2023-05-07T09:45:39.325Z,2.60
2023-05-07T09:47:45.668Z,2.65
2023-05-07T09:49:50.395Z,2.22
2023-05-07T09:51:54.561Z,2.30
2023-05-07T09:54:01.334Z,2.78
2023-05-07T09:56:05.493Z,2.20
2023-05-07T09:58:08.730Z,2.40
2023-05-07T10:00:13.228Z,2.45
2023-05-07T10:02:17.623Z,2.20
2023-05-07T10:04:21.974Z,2.42
2023-05-07T10:06:26.456Z,2.60
2023-05-07T10:08:31.793Z,2.30
2023-05-07T10:10:36.555Z,2.05
2023-05-07T10:12:41.370Z,2.30
2023-05-07T10:14:44.379Z,2.50
2023-05-07T10:16:49.654Z,1.85
2023-05-07T10:18:53.852Z,2.20
2023-05-07T10:21:01.271Z,2.05
2023-05-07T10:23:06.353Z,2.40
2023-05-07T10:25:16.266Z,2.45
2023-05-07T10:27:21.372Z,2.05
2023-05-07T10:29:35.113Z,2.15
2023-05-07T10:31:51.041Z,2.40
2023-05-07T10:33:56.920Z,2.22
2023-05-07T10:36:02.428Z,2.40
2023-05-07T10:38:05.551Z,2.22
2023-05-07T10:40:10.739Z,2.45
2023-05-07T10:42:14.450Z,2.05
2023-05-07T10:44:29.279Z,1.83
2023-05-07T10:46:36.638Z,2.22
2023-05-07T10:49:08.688Z,1.98
2023-05-07T10:51:22.400Z,2.10
2023-05-07T10:53:27.531Z,2.20
2023-05-07T10:55:31.070Z,2.08
2023-05-07T10:57:37.896Z,2.17
2023-05-07T10:59:44.767Z,2.00
2023-05-07T11:01:56.187Z,2.13
2023-05-07T11:04:15.777Z,2.22
2023-05-07T11:06:18.647Z,1.90
2023-05-07T11:08:21.511Z,2.10
2023-05-07T11:10:24.611Z,2.33
2023-05-07T11:12:49.733Z,2.05
2023-05-07T11:14:54.952Z,1.92
2023-05-07T11:17:04.384Z,1.90
2023-05-07T11:19:07.149Z,2.05
2023-05-07T11:21:10.448Z,2.17
2023-05-07T11:24:09.131Z,1.83
2023-05-07T11:26:13.016Z,1.75
2023-05-07T11:28:16.175Z,1.92
2023-05-07T11:30:20.760Z,1.90
2023-05-07T11:32:25.418Z,1.83
2023-05-07T11:34:28.665Z,2.08
2023-05-07T11:36:34.253Z,1.73
2023-05-07T11:38:38.026Z,1.83
2023-05-07T11:40:51.654Z,2.10
2023-05-07T11:42:54.485Z,2.00
2023-05-07T11:44:57.495Z,2.10
2023-05-07T11:47:03.278Z,2.28
2023-05-07T11:49:06.070Z,2.00
2023-05-07T11:51:10.019Z,2.13
2023-05-07T11:53:13.946Z,2.25
2023-05-07T11:55:20.574Z,1.98
2023-05-07T11:59:26.285Z,2.10
2023-05-07T12:01:29.150Z,1.92
2023-05-07T12:03:36.213Z,1.90
2023-05-07T12:05:42.900Z,1.88
2023-05-07T12:09:49.644Z,1.90
2023-05-07T12:11:53.913Z,1.88
2023-05-07T12:13:59.804Z,2.17
2023-05-07T12:16:04.307Z,1.92
2023-05-07T12:18:07.465Z,1.90
2023-05-07T12:20:12.692Z,1.90
2023-05-07T12:22:15.990Z,2.30
2023-05-07T12:24:21.931Z,2.05
2023-05-07T12:26:25.794Z,1.70
2023-05-07T12:28:28.783Z,1.58
2023-05-07T12:30:31.618Z,1.80
2023-05-07T12:32:37.475Z,2.00
2023-05-07T12:34:45.377Z,1.70
2023-05-07T12:36:50.741Z,1.60
2023-05-07T12:38:54.002Z,1.50
2023-05-07T12:40:56.880Z,1.85
2023-05-07T12:43:01.230Z,1.63
2023-05-07T12:45:10.848Z,1.98
2023-05-07T12:47:14.260Z,2.00
2023-05-07T12:49:17.381Z,2.00
2023-05-07T12:51:20.207Z,1.58
2023-05-07T12:53:27.173Z,1.27
2023-05-07T12:55:34.752Z,1.00
2023-05-07T12:57:41.686Z,1.00
2023-05-07T12:59:44.783Z,1.10
2023-05-07T13:01:47.985Z,1.02
2023-05-07T13:03:51.379Z,1.30
2023-05-07T13:05:58.682Z,1.58
2023-05-07T13:08:01.836Z,1.92
2023-05-07T13:10:06.927Z,2.00
2023-05-07T13:12:09.749Z,1.60
2023-05-07T13:14:12.554Z,1.88
2023-05-07T13:16:15.449Z,1.45
2023-05-07T13:18:19.604Z,2.05
2023-05-07T13:20:23.315Z,1.90
2023-05-07T13:22:26.290Z,1.92
2023-05-07T13:24:29.009Z,1.58
2023-05-07T13:26:33.640Z,1.80
2023-05-07T13:28:36.574Z,2.00
2023-05-07T13:30:39.358Z,1.55
2023-05-07T13:32:42.171Z,1.40
2023-05-07T13:34:45.104Z,1.48
2023-05-07T13:36:47.879Z,1.25
2023-05-07T13:38:51.359Z,1.30
2023-05-07T13:40:54.152Z,1.45
2023-05-07T13:42:59.564Z,1.38
2023-05-07T13:45:04.114Z,1.40
2023-05-07T13:47:06.898Z,1.67
2023-05-07T13:49:12.081Z,1.90
2023-05-07T13:51:14.883Z,1.40
2023-05-07T13:53:19.283Z,2.30
2023-05-07T13:55:23.860Z,1.77
2023-05-07T13:57:26.643Z,1.25
2023-05-07T13:59:30.805Z,1.50
2023-05-07T14:01:33.566Z,1.70
2023-05-07T14:03:38.811Z,1.95
2023-05-07T14:05:41.650Z,1.83
2023-05-07T14:07:44.450Z,2.33
2023-05-07T14:09:47.473Z,2.00
2023-05-07T14:11:52.308Z,1.95
2023-05-07T14:13:55.116Z,2.78
2023-05-07T14:15:59.279Z,1.88
2023-05-07T14:18:02.377Z,2.55
2023-05-07T14:20:07.241Z,2.47
2023-05-07T14:22:09.956Z,2.45
2023-05-07T14:24:13.464Z,2.13
2023-05-07T14:26:16.781Z,2.38
2023-05-07T14:28:19.481Z,2.45
2023-05-07T14:30:23.357Z,2.35
2023-05-07T14:32:27.599Z,2.00
2023-05-07T14:34:30.533Z,2.80
2023-05-07T14:36:33.210Z,2.95
2023-05-07T14:38:35.991Z,3.08
2023-05-07T14:40:38.740Z,2.85
2023-05-07T14:42:41.463Z,3.40
2023-05-07T14:44:45.710Z,2.33
2023-05-07T14:46:48.533Z,2.67
2023-05-07T14:48:52.650Z,2.40
2023-05-07T14:50:55.347Z,3.25
2023-05-07T14:52:58.083Z,2.38
2023-05-07T14:55:01.303Z,1.90
2023-05-07T14:57:04.120Z,2.72
2023-05-07T14:59:07.082Z,2.10
2023-05-07T15:01:09.843Z,2.13
2023-05-07T15:03:12.792Z,2.40
2023-05-07T15:05:18.454Z,2.88
2023-05-07T15:07:21.260Z,2.72
2023-05-07T15:09:24.247Z,2.03
2023-05-07T15:11:27.144Z,2.40
2023-05-07T15:13:30.025Z,2.10
2023-05-07T15:15:33.034Z,2.20
2023-05-07T15:17:35.859Z,2.33
2023-05-07T15:19:38.625Z,2.30
2023-05-07T15:21:42.667Z,2.22
2023-05-07T15:23:45.933Z,2.00
2023-05-07T15:25:50.268Z,1.58
2023-05-07T15:27:55.041Z,2.10
2023-05-07T15:29:57.925Z,1.73
2023-05-07T15:32:00.673Z,1.50
2023-05-07T15:34:03.343Z,1.75
2023-05-07T15:36:07.223Z,1.55
2023-05-07T15:38:11.876Z,1.90
2023-05-07T15:40:15.180Z,1.63
2023-05-07T15:42:17.975Z,1.77
2023-05-07T15:44:20.755Z,1.65
2023-05-07T15:46:25.771Z,1.88
2023-05-07T15:48:28.723Z,2.03
2023-05-07T15:50:31.460Z,2.28
2023-05-07T15:52:34.431Z,2.45
2023-05-07T15:54:38.794Z,2.58
2023-05-07T15:56:41.502Z,2.80
2023-05-07T15:58:44.239Z,2.75
2023-05-07T16:00:46.997Z,2.42
2023-05-07T16:02:49.903Z,2.45
2023-05-07T16:04:52.717Z,2.40
2023-05-07T16:06:56.810Z,2.55
2023-05-07T16:08:59.730Z,2.58
2023-05-07T16:11:03.862Z,2.42
2023-05-07T16:13:06.717Z,2.50
2023-05-07T16:15:09.994Z,2.70
2023-05-07T16:17:12.802Z,2.40
2023-05-07T16:19:15.667Z,2.70
2023-05-07T16:21:18.316Z,2.90
2023-05-07T16:23:21.130Z,3.20
2023-05-07T16:25:23.913Z,2.97
2023-05-07T16:27:28.060Z,3.33
2023-05-07T16:29:30.904Z,3.20
2023-05-07T16:31:33.925Z,3.10
2023-05-07T16:33:36.703Z,4.60
2023-05-07T16:35:39.483Z,3.55
2023-05-07T16:37:42.354Z,3.67
2023-05-07T16:39:45.109Z,3.63
2023-05-07T16:41:48.730Z,3.45
2023-05-07T16:43:52.832Z,3.65
2023-05-07T16:45:55.642Z,3.38
2023-05-07T16:47:59.657Z,3.25
2023-05-07T16:50:05.558Z,3.92
2023-05-07T16:52:08.453Z,4.03
2023-05-07T16:54:11.158Z,3.63
2023-05-07T16:56:13.930Z,4.18
2023-05-07T16:58:16.635Z,3.92
2023-05-07T17:00:21.122Z,4.22
2023-05-07T17:02:24.030Z,4.15
2023-05-07T17:04:26.996Z,4.47
2023-05-07T17:06:29.817Z,4.50
2023-05-07T17:08:32.548Z,4.78
2023-05-07T17:10:35.261Z,5.38
2023-05-07T17:12:38.188Z,5.63
2023-05-07T17:14:40.971Z,5.15
2023-05-07T17:16:46.814Z,5.35
2023-05-07T17:18:49.623Z,5.60
2023-05-07T17:20:52.893Z,5.28
2023-05-07T17:22:55.847Z,5.40
2023-05-07T17:24:58.875Z,5.50
2023-05-07T17:27:04.545Z,4.72
2023-05-07T17:29:07.194Z,4.72
2023-05-07T17:31:09.988Z,4.88
2023-05-07T17:33:20.980Z,5.20
2023-05-07T17:35:24.234Z,4.57
2023-05-07T17:37:27.475Z,4.60
2023-05-07T17:39:30.309Z,5.35
2023-05-07T17:41:33.010Z,4.97
2023-05-07T17:43:35.751Z,5.32
2023-05-07T17:45:38.610Z,5.22
2023-05-07T17:47:41.392Z,5.20
2023-05-07T17:49:45.485Z,5.72
2023-05-07T17:51:54.922Z,5.47
2023-05-07T17:53:59.691Z,5.70
2023-05-07T17:56:02.508Z,5.32
2023-05-07T17:58:05.213Z,5.60
2023-05-07T18:00:10.834Z,6.20
2023-05-07T18:02:13.858Z,5.25
2023-05-07T18:04:16.595Z,5.65
2023-05-07T18:06:22.553Z,5.50
2023-05-07T18:08:25.272Z,5.80
2023-05-07T18:10:28.109Z,5.32
2023-05-07T18:12:31.127Z,5.18
2023-05-07T18:14:33.825Z,5.03
2023-05-07T18:16:36.597Z,4.55
2023-05-07T18:18:39.375Z,5.13
2023-05-07T18:20:42.206Z,5.43
2023-05-07T18:22:46.390Z,5.53
2023-05-07T18:24:49.567Z,6.25
2023-05-07T18:26:52.322Z,6.20
2023-05-07T18:28:55.042Z,6.47
2023-05-07T18:30:57.735Z,6.45
2023-05-07T18:33:00.501Z,6.53
2023-05-07T18:35:03.300Z,6.18
2023-05-07T18:37:06.054Z,5.90
2023-05-07T18:39:10.344Z,6.13
2023-05-07T18:41:13.105Z,6.05
2023-05-07T18:43:16.262Z,6.05
2023-05-07T18:45:19.134Z,5.97
2023-05-07T18:47:21.867Z,6.13
2023-05-07T18:49:24.625Z,4.95
2023-05-07T18:51:27.839Z,5.18
2023-05-07T18:53:30.617Z,5.57
2023-05-07T18:55:34.723Z,5.57
2023-05-07T18:57:37.501Z,4.95
2023-05-07T18:59:40.294Z,6.10
2023-05-07T19:01:43.221Z,6.05
2023-05-07T19:03:46.101Z,6.20
2023-05-07T19:05:48.855Z,6.00
2023-05-07T19:07:51.713Z,5.93
2023-05-07T19:10:04.192Z,6.28
2023-05-07T19:12:18.729Z,6.07
2023-05-07T19:14:21.508Z,6.88
2023-05-07T19:16:24.466Z,6.22
2023-05-07T19:18:27.292Z,6.78
2023-05-07T19:20:30.252Z,5.93
2023-05-07T19:22:32.930Z,6.63
2023-05-07T19:24:37.157Z,7.55
2023-05-07T19:26:39.999Z,6.55
2023-05-07T19:28:45.506Z,6.93
2023-05-07T19:30:52.243Z,6.60
2023-05-07T19:32:55.075Z,7.05
2023-05-07T19:34:57.817Z,6.35
2023-05-07T19:37:00.707Z,6.88
2023-05-07T19:39:03.435Z,6.05
2023-05-07T19:41:06.317Z,6.40
2023-05-07T19:43:09.092Z,6.55
2023-05-07T19:45:16.287Z,6.50
2023-05-07T19:47:19.537Z,7.05
2023-05-07T19:49:22.428Z,7.00
2023-05-07T19:51:25.748Z,7.22
2023-05-07T19:53:30.114Z,7.40
2023-05-07T19:55:32.969Z,7.82
2023-05-07T19:57:35.887Z,7.13
2023-05-07T19:59:38.645Z,7.50
2023-05-07T20:01:42.938Z,7.57
2023-05-07T20:03:46.490Z,7.93
2023-05-07T20:05:50.416Z,8.07
2023-05-07T20:07:53.107Z,7.32
2023-05-07T20:09:55.841Z,7.60
2023-05-07T20:11:58.568Z,7.70
2023-05-07T20:14:01.296Z,8.00
2023-05-07T20:16:04.128Z,8.13
2023-05-07T20:18:09.043Z,8.98
2023-05-07T20:20:12.967Z,9.30
2023-05-07T20:22:15.949Z,8.82
2023-05-07T20:24:19.212Z,10.45
2023-05-07T20:26:22.189Z,9.98
2023-05-07T20:28:25.274Z,10.45
2023-05-07T20:30:28.198Z,9.45
2023-05-07T20:32:30.937Z,9.60
2023-05-07T20:34:35.168Z,9.52
2023-05-07T20:36:37.986Z,9.52
2023-05-07T20:38:40.729Z,9.88
2023-05-07T20:40:43.462Z,9.75
2023-05-07T20:42:46.172Z,9.07
2023-05-07T20:44:49.376Z,9.70
2023-05-07T20:46:52.345Z,9.13
2023-05-07T20:48:55.069Z,9.57
2023-05-07T20:50:59.718Z,9.60
2023-05-07T20:53:02.428Z,9.27
2023-05-07T20:55:05.971Z,9.23
2023-05-07T20:57:08.826Z,9.10
2023-05-07T20:59:11.524Z,9.73
2023-05-07T21:01:14.200Z,8.25
2023-05-07T21:03:16.969Z,9.25
2023-05-07T21:05:20.130Z,9.80
2023-05-07T21:07:24.262Z,10.52
2023-05-07T21:09:27.322Z,10.25
2023-05-07T21:11:30.105Z,11.13
2023-05-07T21:13:32.914Z,11.63
2023-05-07T21:15:35.619Z,11.65
2023-05-07T21:17:38.391Z,12.00
2023-05-07T21:19:43.130Z,12.80
2023-05-07T21:21:45.915Z,12.45
2023-05-07T21:23:50.312Z,11.27
2023-05-07T21:25:53.068Z,12.35
2023-05-07T21:27:56.000Z,12.07
2023-05-07T21:30:04.081Z,12.27
2023-05-07T21:32:06.838Z,12.38
2023-05-07T21:34:09.552Z,12.55
2023-05-07T21:36:12.368Z,12.40
2023-05-07T21:38:15.129Z,12.63
2023-05-07T21:40:19.429Z,12.48
2023-05-07T21:42:23.321Z,12.20
2023-05-07T21:44:29.331Z,12.80
2023-05-07T21:46:32.206Z,12.80
2023-05-07T21:48:35.279Z,13.00
2023-05-07T21:50:38.045Z,13.10
2023-05-07T21:52:40.784Z,13.82
2023-05-07T21:54:43.675Z,13.50
2023-05-07T21:56:49.890Z,12.85
2023-05-07T21:58:52.853Z,12.40
2023-05-07T22:00:55.885Z,13.48
2023-05-07T22:02:58.736Z,12.68
2023-05-07T22:05:01.473Z,13.85
2023-05-07T22:07:04.157Z,13.82
2023-05-07T22:09:07.874Z,14.30
2023-05-07T22:11:10.938Z,12.93
2023-05-07T22:13:15.200Z,13.73
2023-05-07T22:15:18.134Z,13.23
2023-05-07T22:17:21.014Z,13.40
2023-05-07T22:19:23.741Z,13.23
2023-05-07T22:21:26.491Z,13.93
2023-05-07T22:23:29.237Z,14.73
2023-05-07T22:25:34.717Z,13.80
2023-05-07T22:27:37.614Z,14.07
2023-05-07T22:29:41.803Z,14.38
2023-05-07T22:31:44.703Z,15.20
2023-05-07T22:33:47.493Z,12.77
2023-05-07T22:35:50.244Z,13.98
2023-05-07T22:37:53.014Z,13.75
2023-05-07T22:39:55.853Z,15.15
2023-05-07T22:41:58.690Z,13.48
2023-05-07T22:44:01.580Z,13.18
2023-05-07T22:46:05.960Z,14.70
2023-05-07T22:48:08.860Z,15.00
2023-05-07T22:50:12.829Z,15.07
2023-05-07T22:52:15.930Z,16.42
2023-05-07T22:54:18.696Z,16.65
2023-05-07T22:56:21.378Z,17.55
2023-05-07T22:58:24.168Z,16.23
2023-05-07T23:00:26.986Z,16.60
2023-05-07T23:02:32.708Z,17.15
2023-05-07T23:04:35.695Z,16.35
2023-05-07T23:06:38.405Z,15.80
2023-05-07T23:08:41.091Z,15.75
2023-05-07T23:10:43.865Z,15.30
2023-05-07T23:12:49.328Z,16.77
2023-05-07T23:14:52.250Z,16.35
2023-05-07T23:16:55.008Z,17.63
2023-05-07T23:18:59.332Z,17.60
2023-05-07T23:21:02.095Z,19.75
2023-05-07T23:23:04.855Z,18.95
2023-05-07T23:25:08.796Z,19.27
2023-05-07T23:27:11.670Z,18.13
2023-05-07T23:29:14.378Z,17.65
2023-05-07T23:31:17.238Z,17.30
2023-05-07T23:33:20.037Z,16.05
2023-05-07T23:35:24.376Z,17.08
2023-05-07T23:37:27.147Z,18.25
2023-05-07T23:39:29.859Z,18.08
2023-05-07T23:41:32.568Z,17.77
2023-05-07T23:43:35.284Z,18.30
2023-05-07T23:45:38.637Z,16.70
2023-05-07T23:47:41.583Z,18.25
2023-05-07T23:49:44.506Z,17.33
2023-05-07T23:51:48.597Z,18.38
2023-05-07T23:53:51.359Z,18.23
2023-05-07T23:55:54.112Z,17.25
2023-05-07T23:57:56.818Z,17.23
